Time;durP1;ratioP1;P1;durP2;ratioP2;P2;SDS_P1;SDS_P2;PMS_P1;PMS_P2;Temp;Humidity;BMP_temperature;BMP_pressure;BME280_temperature;BME280_humidity;BME280_pressure;Samples;Min_cycle;Max_cycle;Signal;HPM_P1;HPM_P2
2021/05/05 00:05:01;;;;;;;2.33;1.50;;;;;;;7.04;100.00;96814.52;3828429;76;44149;-22
2021/05/05 00:10:09;;;;;;;3.20;1.60;;;;;;;6.98;100.00;96820.59;3822845;76;44115;-23
2021/05/05 00:15:17;;;;;;;3.27;1.40;;;;;;;6.93;100.00;96821.13;3802600;77;44055;-22
2021/05/05 00:20:23;;;;;;;2.52;1.50;;;;;;;6.86;100.00;96810.79;3804247;76;43053;-22
2021/05/05 00:25:29;;;;;;;4.40;1.83;;;;;;;6.75;100.00;96813.39;3803790;78;43030;-23
2021/05/05 00:30:35;;;;;;;2.87;1.30;;;;;;;6.63;100.00;96812.12;3805307;77;43205;-22
2021/05/05 00:35:41;;;;;;;4.13;1.70;;;;;;;6.62;100.00;96817.14;3804630;76;44085;-22
2021/05/05 00:40:48;;;;;;;3.90;1.80;;;;;;;6.65;100.00;96812.75;3804043;76;73249;-22
2021/05/05 00:45:54;;;;;;;4.37;1.80;;;;;;;6.64;100.00;96817.80;3804037;76;44175;-23
2021/05/05 00:51:01;;;;;;;4.83;1.90;;;;;;;6.68;100.00;96812.41;3804649;76;44078;-22
2021/05/05 00:56:07;;;;;;;2.83;1.90;;;;;;;6.78;100.00;96814.34;3799401;77;44308;-22
2021/05/05 01:01:13;;;;;;;4.33;1.93;;;;;;;6.74;100.00;96799.67;3800251;78;43628;-22
2021/05/05 01:06:20;;;;;;;3.50;1.75;;;;;;;6.53;100.00;96799.44;3803583;76;43730;-22
2021/05/05 01:11:28;;;;;;;3.70;2.00;;;;;;;6.38;100.00;96805.55;3800376;78;43338;-22
2021/05/05 01:16:34;;;;;;;3.13;2.00;;;;;;;6.22;100.00;96792.25;3803037;76;44441;-22
2021/05/05 01:21:40;;;;;;;3.70;1.83;;;;;;;6.08;100.00;96792.48;3801894;76;43682;-21
2021/05/05 01:26:46;;;;;;;2.75;1.92;;;;;;;5.98;100.00;96791.30;3801694;76;44547;-22
2021/05/05 01:31:53;;;;;;;2.55;1.95;;;;;;;5.98;100.00;96783.28;3803518;77;44541;-22
2021/05/05 01:36:59;;;;;;;3.85;2.08;;;;;;;6.04;100.00;96772.44;3807086;76;43416;-22
2021/05/05 01:42:07;;;;;;;2.57;2.10;;;;;;;6.06;100.00;96768.58;3805596;78;43745;-22
2021/05/05 01:47:14;;;;;;;2.17;1.75;;;;;;;6.19;100.00;96765.84;3804015;76;44369;-22
2021/05/05 01:52:21;;;;;;;2.95;1.95;;;;;;;6.34;100.00;96771.31;3806153;76;43243;-22
2021/05/05 01:57:38;;;;;;;3.53;2.00;;;;;;;6.39;100.00;96769.78;3802562;78;73318;-21
2021/05/05 02:02:46;;;;;;;4.33;1.97;;;;;;;6.46;100.00;96770.73;3804217;78;26437;-22
2021/05/05 02:07:54;;;;;;;3.73;1.90;;;;;;;6.49;100.00;96772.21;3808532;76;26783;-22
2021/05/05 02:13:00;;;;;;;3.60;1.83;;;;;;;6.42;100.00;96777.43;3804394;77;44020;-22
2021/05/05 02:18:10;;;;;;;3.73;1.90;;;;;;;6.28;100.00;96791.05;3799746;78;44013;-20
2021/05/05 02:23:15;;;;;;;4.75;2.12;;;;;;;6.31;100.00;96781.34;3802166;76;43462;-22
2021/05/05 02:28:21;;;;;;;4.00;1.97;;;;;;;6.26;100.00;96786.89;3804487;78;43339;-22
2021/05/05 02:33:45;;;;;;;3.67;2.30;;;;;;;6.17;100.00;96784.23;3805046;76;73249;-22
2021/05/05 02:38:51;;;;;;;2.30;2.10;;;;;;;6.15;100.00;96767.56;3805081;77;44104;-22
2021/05/05 02:43:59;;;;;;;3.62;2.17;;;;;;;6.15;100.00;96765.38;3803633;76;73278;-22
2021/05/05 02:49:07;;;;;;;4.08;2.20;;;;;;;6.14;100.00;96760.54;3805043;76;43658;-22
2021/05/05 02:54:15;;;;;;;5.27;2.17;;;;;;;6.11;100.00;96764.07;3804631;76;26288;-22
2021/05/05 02:59:21;;;;;;;4.33;2.03;;;;;;;6.09;100.00;96750.86;3804018;78;73296;-22
2021/05/05 03:04:27;;;;;;;5.03;2.50;;;;;;;6.08;100.00;96753.72;3804141;76;44544;-21
2021/05/05 03:09:33;;;;;;;4.00;1.87;;;;;;;6.00;100.00;96741.22;3800982;76;43693;-22
2021/05/05 03:14:39;;;;;;;3.87;2.00;;;;;;;6.00;100.00;96741.22;3782321;77;43572;-22
2021/05/05 03:19:45;;;;;;;4.20;2.33;;;;;;;5.98;100.00;96743.19;3773512;77;43896;-22
2021/05/05 03:24:51;;;;;;;4.47;2.63;;;;;;;5.90;100.00;96736.55;3772721;77;65376;-21
2021/05/05 03:29:57;;;;;;;3.37;2.03;;;;;;;5.89;100.00;96725.53;3772333;78;44052;-21
2021/05/05 03:35:02;;;;;;;2.63;2.20;;;;;;;5.99;100.00;96720.35;3773371;77;43400;-20
2021/05/05 03:40:11;;;;;;;3.43;2.07;;;;;;;6.02;100.00;96712.48;3774585;77;43190;-21
2021/05/05 03:45:17;;;;;;;4.63;2.20;;;;;;;6.06;100.00;96714.30;3773286;77;43445;-21
2021/05/05 03:50:24;;;;;;;3.23;2.00;;;;;;;6.04;100.00;96726.51;3775926;77;44213;-21
2021/05/05 03:55:31;;;;;;;2.43;2.00;;;;;;;5.97;100.00;96729.01;3772368;77;44014;-21
2021/05/05 04:00:37;;;;;;;3.33;2.23;;;;;;;5.85;100.00;96723.20;3770237;77;43984;-21
2021/05/05 04:05:43;;;;;;;4.00;2.30;;;;;;;5.84;100.00;96730.06;3777639;77;43421;-20
2021/05/05 04:10:49;;;;;;;3.23;2.20;;;;;;;5.82;100.00;96728.06;3770602;78;44503;-21
2021/05/05 04:15:56;;;;;;;3.50;1.90;;;;;;;5.90;100.00;96727.20;3773567;78;44046;-21
2021/05/05 04:21:19;;;;;;;5.20;2.37;;;;;;;6.02;100.00;96724.50;3769613;77;44171;-21
2021/05/05 04:26:44;;;;;;;2.67;1.90;;;;;;;6.08;100.00;96730.48;3771383;77;42946;-21
2021/05/05 04:31:51;;;;;;;3.23;2.20;;;;;;;6.22;100.00;96733.42;3768301;77;43013;-20
2021/05/05 04:36:57;;;;;;;4.23;2.07;;;;;;;6.27;100.00;96740.42;3772985;78;43504;-21
2021/05/05 04:42:09;;;;;;;3.92;1.70;;;;;;;6.16;100.00;96738.97;3770490;77;43692;-19
2021/05/05 04:47:15;;;;;;;4.77;1.77;;;;;;;6.10;100.00;96747.70;3772162;77;44006;-20
2021/05/05 04:52:22;;;;;;;2.80;1.73;;;;;;;6.05;100.00;96752.23;3770414;78;44060;-20
2021/05/05 04:57:28;;;;;;;2.63;1.60;;;;;;;6.16;100.00;96749.66;3773224;78;44010;-21
2021/05/05 05:02:34;;;;;;;2.93;1.40;;;;;;;6.42;100.00;96753.87;3774440;77;43721;-20
2021/05/05 05:07:40;;;;;;;2.50;1.30;;;;;;;6.58;100.00;96768.98;3773589;78;44073;-22
2021/05/05 05:12:46;;;;;;;3.73;1.40;;;;;;;6.81;99.18;96764.16;3768806;77;73449;-21
2021/05/05 05:17:53;;;;;;;1.77;1.17;;;;;;;7.01;90.43;96754.63;3772553;77;44117;-21
2021/05/05 05:22:59;;;;;;;5.37;1.87;;;;;;;7.16;90.75;96747.14;3774063;77;44189;-22
2021/05/05 05:28:05;;;;;;;5.40;1.60;;;;;;;7.26;85.73;96761.11;3773472;78;43673;-21
2021/05/05 05:33:11;;;;;;;1.30;1.03;;;;;;;7.33;83.73;96771.44;3774821;77;44086;-20
2021/05/05 05:38:17;;;;;;;4.50;1.50;;;;;;;7.34;81.54;96767.75;3773575;78;43721;-22
2021/05/05 05:43:24;;;;;;;4.27;1.50;;;;;;;7.29;82.63;96762.09;3772372;77;73283;-20
2021/05/05 05:48:30;;;;;;;2.75;1.40;;;;;;;7.13;80.38;96746.16;3770533;78;43467;-22
2021/05/05 05:53:36;;;;;;;6.78;1.60;;;;;;;7.14;82.46;96754.52;3773768;78;43714;-20
2021/05/05 05:58:45;;;;;;;2.43;1.40;;;;;;;7.09;83.59;96767.11;3774980;77;43687;-20
2021/05/05 06:03:50;;;;;;;5.63;1.70;;;;;;;7.28;82.71;96763.63;3773072;77;44090;-20
2021/05/05 06:08:57;;;;;;;6.03;1.63;;;;;;;7.48;78.14;96761.23;3770386;77;43717;-20
2021/05/05 06:14:04;;;;;;;2.80;1.60;;;;;;;7.71;81.18;96776.73;3784070;76;44075;-20
2021/05/05 06:19:10;;;;;;;6.03;1.62;;;;;;;7.70;78.65;96777.75;3802904;78;44035;-20
2021/05/05 06:24:16;;;;;;;4.37;1.90;;;;;;;7.67;75.70;96782.16;3807754;75;43755;-20
2021/05/05 06:29:22;;;;;;;4.33;1.80;;;;;;;7.78;82.08;96787.56;3804120;76;44083;-20
2021/05/05 06:34:28;;;;;;;2.80;1.45;;;;;;;7.81;79.27;96789.88;3804069;76;43974;-20
2021/05/05 06:39:34;;;;;;;4.25;1.80;;;;;;;7.80;75.98;96793.58;3806201;77;43726;-21
2021/05/05 06:44:40;;;;;;;2.52;1.40;;;;;;;7.69;75.27;96803.41;3803486;76;44099;-20
2021/05/05 06:49:46;;;;;;;3.98;1.62;;;;;;;7.50;70.87;96808.78;3802582;78;43722;-20
2021/05/05 06:54:52;;;;;;;4.92;1.77;;;;;;;7.75;75.33;96812.56;3804620;76;43976;-20
2021/05/05 06:59:58;;;;;;;2.98;1.75;;;;;;;7.67;73.77;96826.39;3804886;76;44067;-20
2021/05/05 07:05:05;;;;;;;2.17;1.45;;;;;;;7.79;70.18;96822.73;3804448;78;43388;-21
2021/05/05 07:10:13;;;;;;;5.47;1.65;;;;;;;8.09;70.29;96827.28;3804607;78;43408;-20
2021/05/05 07:15:19;;;;;;;2.27;1.50;;;;;;;7.99;68.83;96819.02;3815486;76;43538;-21
2021/05/05 07:20:25;;;;;;;5.00;1.83;;;;;;;8.06;69.17;96827.16;3824486;76;73311;-20
2021/05/05 07:25:32;;;;;;;4.45;1.77;;;;;;;8.63;72.13;96822.98;3827312;77;44088;-20
2021/05/05 07:30:39;;;;;;;2.72;1.80;;;;;;;8.69;67.17;96829.94;3827756;76;43333;-20
2021/05/05 07:35:50;;;;;;;3.05;1.75;;;;;;;8.45;61.37;96822.00;3828934;77;44027;-22
2021/05/05 07:41:36;;;;;;;5.33;2.12;;;;;;;8.64;61.73;96811.19;3827445;77;44053;-22
2021/05/05 07:46:27;;;;;;;3.72;1.90;;;;;;;8.84;64.62;96823.19;3825558;76;44814;-22
2021/05/05 07:51:32;;;;;;;3.75;1.90;;;;;;;8.87;61.75;96842.45;3828091;76;43685;-19
2021/05/05 07:56:37;;;;;;;4.80;2.00;;;;;;;9.16;61.66;96833.95;3828451;77;43346;-21
2021/05/05 08:01:43;;;;;;;3.72;1.55;;;;;;;9.00;60.00;96822.11;3829998;76;44250;-20
2021/05/05 08:06:49;;;;;;;2.58;1.50;;;;;;;8.83;57.41;96839.81;3827738;77;43350;-21
2021/05/05 08:11:55;;;;;;;2.52;1.40;;;;;;;8.81;56.67;96832.45;3828277;76;44040;-21
2021/05/05 08:17:01;;;;;;;2.30;1.37;;;;;;;9.06;58.97;96841.51;3813566;76;43718;-21
2021/05/05 08:22:07;;;;;;;4.80;1.70;;;;;;;9.48;55.78;96837.67;3804184;78;44453;-21
2021/05/05 08:27:13;;;;;;;3.37;2.08;;;;;;;9.14;54.99;96825.78;3804700;78;44083;-21
2021/05/05 08:32:20;;;;;;;3.75;1.50;;;;;;;8.77;58.95;96829.82;3804825;76;44050;-21
2021/05/05 08:37:27;;;;;;;2.35;1.40;;;;;;;8.68;61.66;96860.00;3805221;78;43677;-21
2021/05/05 08:42:33;;;;;;;3.58;1.65;;;;;;;8.12;65.89;96852.41;3805195;78;43358;-21
2021/05/05 08:47:39;;;;;;;3.40;1.60;;;;;;;7.95;71.87;96867.31;3805459;76;44084;-21
2021/05/05 08:52:46;;;;;;;2.90;1.60;;;;;;;8.40;69.14;96853.11;3803450;76;44006;-21
2021/05/05 08:57:53;;;;;;;3.10;1.65;;;;;;;8.64;68.21;96862.20;3804925;78;43683;-21
2021/05/05 09:03:02;;;;;;;5.35;1.80;;;;;;;8.70;69.70;96857.92;3805077;76;44396;-21
2021/05/05 09:08:14;;;;;;;5.40;2.52;;;;;;;8.81;70.05;96855.28;3802804;77;44027;-20
2021/05/05 09:13:25;;;;;;;3.37;1.70;;;;;;;8.96;64.55;96846.36;3804101;76;44724;-21
2021/05/05 09:18:31;;;;;;;3.13;1.60;;;;;;;8.93;65.26;96847.58;3773872;78;43339;-20
2021/05/05 09:23:37;;;;;;;3.30;1.62;;;;;;;8.43;65.71;96845.51;3773534;77;44004;-21
2021/05/05 09:28:52;;;;;;;4.62;1.40;;;;;;;8.26;64.15;96856.95;3774814;77;44089;-20
2021/05/05 09:33:59;;;;;;;3.70;1.57;;;;;;;8.35;61.75;96859.00;3773805;78;43019;-21
2021/05/05 09:39:10;;;;;;;4.60;1.60;;;;;;;8.68;59.62;96849.75;3773229;77;44082;-22
2021/05/05 09:44:16;;;;;;;2.47;1.50;;;;;;;9.10;57.55;96845.48;3773711;77;43695;-22
2021/05/05 09:49:33;;;;;;;2.30;1.30;;;;;;;9.30;58.58;96840.81;3773765;78;43270;-19
2021/05/05 09:54:41;;;;;;;2.65;1.22;;;;;;;9.07;55.34;96843.17;3773806;77;43686;-20
2021/05/05 10:00:12;;;;;;;3.70;1.45;;;;;;;8.95;51.16;96879.08;3774958;77;44050;-20
2021/05/05 10:05:23;;;;;;;2.70;1.30;;;;;;;9.14;52.14;96862.87;3772166;78;26272;-20
2021/05/05 10:10:31;;;;;;;2.58;1.30;;;;;;;9.79;50.85;96831.92;3773847;78;44065;-20
2021/05/05 10:15:38;;;;;;;2.45;1.40;;;;;;;10.77;49.27;96854.44;3783084;77;44078;-19
2021/05/05 10:20:45;;;;;;;1.87;1.20;;;;;;;10.32;47.50;96866.92;3828575;77;42952;-19
2021/05/05 10:25:52;;;;;;;3.40;1.30;;;;;;;10.28;45.46;96854.38;3827736;76;44046;-19
2021/05/05 10:30:58;;;;;;;2.27;1.20;;;;;;;10.79;48.23;96841.08;3829819;76;43335;-20
2021/05/05 10:36:37;;;;;;;2.40;1.20;;;;;;;10.51;45.11;96851.13;3828334;76;44169;-20
2021/05/05 10:41:44;;;;;;;2.50;1.02;;;;;;;10.15;46.11;96890.63;3825425;77;44055;-20
2021/05/05 10:46:49;;;;;;;1.72;1.20;;;;;;;10.73;48.66;96867.48;3830293;76;43677;-20
2021/05/05 10:52:03;;;;;;;2.00;1.20;;;;;;;10.68;47.05;96891.48;3828849;77;44453;-20
2021/05/05 10:57:13;;;;;;;3.65;1.07;;;;;;;9.76;52.57;96921.58;3825276;77;44045;-21
2021/05/05 11:02:47;;;;;;;1.53;0.80;;;;;;;6.07;100.00;97044.79;3828779;76;43726;-20
2021/05/05 11:07:56;;;;;;;0.78;0.78;;;;;;;5.05;100.00;97061.23;3824486;77;44043;-19
2021/05/05 11:13:03;;;;;;;1.05;0.80;;;;;;;4.72;100.00;97053.55;3828795;77;44023;-20
2021/05/05 11:18:59;;;;;;;1.77;1.02;;;;;;;4.83;100.00;97045.27;3797993;76;43081;-20
2021/05/05 11:24:06;;;;;;;1.53;0.80;;;;;;;5.09;100.00;97023.03;3744730;77;44487;-26
2021/05/05 11:29:12;;;;;;;1.35;0.98;;;;;;;5.46;100.00;97031.16;3771614;77;44075;-20
2021/05/05 11:34:32;;;;;;;1.57;1.20;;;;;;;6.12;100.00;97041.95;3773900;77;43240;-20
2021/05/05 11:39:42;;;;;;;2.13;1.20;;;;;;;6.60;100.00;97038.56;3771536;78;43087;-19
2021/05/05 11:44:50;;;;;;;1.85;1.30;;;;;;;6.71;100.00;97041.36;3775342;77;73700;-19
2021/05/05 11:49:59;;;;;;;1.67;1.57;;;;;;;7.33;100.00;97021.91;3772332;77;43083;-20
2021/05/05 11:55:16;;;;;;;2.33;1.60;;;;;;;7.94;100.00;96990.86;3771947;78;43291;-20
2021/05/05 12:00:26;;;;;;;2.85;1.67;;;;;;;8.52;89.27;97005.97;3778044;77;43361;-19
2021/05/05 12:05:33;;;;;;;1.20;0.80;;;;;;;8.91;81.91;96995.98;3769647;77;73123;-19
2021/05/05 12:10:44;;;;;;;1.97;0.90;;;;;;;6.19;100.00;97122.82;3775644;77;43376;-18
2021/05/05 12:16:01;;;;;;;0.70;0.70;;;;;;;4.30;100.00;97112.42;3775425;77;43148;-18
2021/05/05 12:21:10;;;;;;;1.05;0.80;;;;;;;4.23;100.00;97096.20;3769636;78;44525;-19
2021/05/05 12:26:19;;;;;;;1.07;0.60;;;;;;;4.22;100.00;97098.53;3771276;78;43372;-19
2021/05/05 12:31:27;;;;;;;2.20;0.83;;;;;;;4.71;100.00;97118.56;3774541;77;43495;-18
2021/05/05 12:36:35;;;;;;;0.67;0.67;;;;;;;5.53;100.00;97086.92;3769653;77;73637;-19
2021/05/05 12:42:05;;;;;;;1.00;0.70;;;;;;;5.75;100.00;97119.37;3773750;78;43438;-19
2021/05/05 12:47:17;;;;;;;0.90;0.80;;;;;;;6.28;100.00;97111.16;3753131;78;44856;-19
2021/05/05 12:52:31;;;;;;;0.70;0.70;;;;;;;6.69;100.00;97099.08;3774143;78;43992;-19
2021/05/05 12:57:36;;;;;;;1.40;1.07;;;;;;;6.97;100.00;97082.64;3769896;77;43750;-19
2021/05/05 13:02:44;;;;;;;0.93;0.93;;;;;;;7.61;100.00;97081.70;3773072;77;44130;-21
2021/05/05 13:07:51;;;;;;;1.65;1.10;;;;;;;8.18;100.00;97087.22;3773010;77;43360;-21
2021/05/05 13:13:04;;;;;;;1.05;0.90;;;;;;;8.45;100.00;97106.97;3774262;78;43999;-20
2021/05/05 13:34:31;;;;;;;1.50;1.40;;;;;;;9.43;76.42;97134.41;3800631;77;43349;-20
2021/05/05 13:39:38;;;;;;;2.00;1.50;;;;;;;9.48;73.69;97114.02;3801879;76;43685;-20
2021/05/05 13:44:48;;;;;;;3.17;1.30;;;;;;;9.60;77.59;97096.06;3805181;76;43470;-20
2021/05/05 13:49:56;;;;;;;1.20;1.10;;;;;;;9.79;67.33;97094.64;3800718;78;44138;-20
2021/05/05 13:55:03;;;;;;;0.72;0.72;;;;;;;9.78;71.45;97097.00;3804878;78;73284;-20
2021/05/05 14:00:13;;;;;;;0.90;0.80;;;;;;;9.81;68.96;97147.24;3791536;76;43879;-19
2021/05/05 14:05:23;;;;;;;0.82;0.60;;;;;;;9.58;68.01;97092.23;3785873;76;43681;-21
2021/05/05 14:10:31;;;;;;;0.70;0.50;;;;;;;9.46;73.94;97150.18;3789320;76;44058;-18
2021/05/05 14:15:38;;;;;;;0.85;0.50;;;;;;;8.78;76.31;97153.70;3798993;76;44174;-19
2021/05/05 14:20:44;;;;;;;0.85;0.50;;;;;;;8.43;84.89;97139.86;3791303;77;43303;-19
2021/05/05 14:25:51;;;;;;;0.60;0.60;;;;;;;8.14;83.18;97162.88;3801247;76;43476;-19
2021/05/05 14:30:58;;;;;;;2.20;0.53;;;;;;;8.37;81.62;97164.73;3804170;76;73190;-19
2021/05/05 14:36:05;;;;;;;1.22;0.70;;;;;;;8.66;78.69;97175.28;3806188;76;44047;-19
2021/05/05 14:41:15;;;;;;;1.57;0.80;;;;;;;9.05;75.30;97187.71;3804755;78;43721;-19
2021/05/05 14:51:48;;;;;;;1.15;1.05;;;;;;;9.36;70.28;97175.98;3797912;76;43317;-20
2021/05/05 14:56:55;;;;;;;2.33;1.37;;;;;;;9.46;64.58;97183.78;3798913;76;43324;-21
2021/05/05 15:02:01;;;;;;;1.47;1.27;;;;;;;9.70;65.75;97172.75;3798468;76;44940;-20
2021/05/05 15:07:07;;;;;;;1.30;1.20;;;;;;;10.25;63.02;97220.81;3794091;76;42945;-20
2021/05/05 15:12:24;;;;;;;1.50;1.40;;;;;;;9.52;64.15;97204.04;3794457;78;44085;-20
2021/05/05 15:17:58;;;;;;;1.40;1.30;;;;;;;9.50;68.25;97202.04;3804684;76;43309;-20
2021/05/05 15:28:28;;;;;;;1.85;1.47;;;;;;;9.72;68.69;97210.20;3801929;77;44396;-20
2021/05/05 15:38:51;;;;;;;3.90;1.60;;;;;;;9.19;65.79;97213.78;3805812;77;44071;-19
2021/05/05 15:49:26;;;;;;;1.65;1.50;;;;;;;9.46;65.76;97190.50;3802296;76;43448;-20
2021/05/05 15:54:33;;;;;;;2.85;1.57;;;;;;;9.62;65.21;97229.31;3802995;78;43869;-21
2021/05/05 16:00:01;;;;;;;2.10;1.90;;;;;;;9.86;64.99;97226.84;3805708;76;43254;-20
2021/05/05 16:16:09;;;;;;;2.83;1.75;;;;;;;9.73;62.34;97248.17;3800326;76;43711;-20
2021/05/05 16:21:26;;;;;;;1.98;1.72;;;;;;;9.49;63.26;97243.38;3816866;76;43674;-20
2021/05/05 16:26:28;;;;;;;3.12;1.70;;;;;;;9.83;62.57;97260.84;3826068;77;44125;-20
2021/05/05 16:47:51;;;;;;;1.67;1.42;;;;;;;9.50;58.80;97303.37;3821835;76;43418;-20
2021/05/05 16:53:10;;;;;;;1.95;1.47;;;;;;;9.29;61.88;97287.41;3809980;77;43030;-19
2021/05/05 16:58:14;;;;;;;4.92;1.30;;;;;;;8.84;64.07;97296.66;3726470;78;43209;-20
2021/05/05 17:09:06;;;;;;;1.57;1.10;;;;;;;9.24;60.23;97304.08;3812757;76;43673;-19
2021/05/05 17:14:10;;;;;;;1.45;1.10;;;;;;;9.29;64.20;97324.21;3729921;78;44187;-20
2021/05/05 17:19:21;;;;;;;1.25;1.10;;;;;;;8.99;67.58;97314.19;3821606;77;44015;-20
2021/05/05 17:24:29;;;;;;;1.30;1.00;;;;;;;8.39;72.55;97319.71;3669376;81;43719;-21
2021/05/05 17:29:42;;;;;;;1.75;1.20;;;;;;;8.18;72.77;97335.86;3724249;78;43730;-19
2021/05/05 17:45:37;;;;;;;2.33;1.30;;;;;;;8.15;76.96;97369.25;3725308;78;43726;-21
2021/05/05 17:51:06;;;;;;;1.10;1.00;;;;;;;8.11;75.35;97376.47;3718747;79;43722;-20
2021/05/05 18:12:39;;;;;;;2.97;1.30;;;;;;;7.20;81.59;97388.59;3721352;78;44122;-19
2021/05/05 18:17:40;;;;;;;2.17;1.20;;;;;;;7.05;84.12;97391.91;3723009;78;43553;-19
2021/05/05 18:22:52;;;;;;;1.60;1.20;;;;;;;6.91;85.15;97388.52;3680860;79;43705;-19
2021/05/05 18:28:04;;;;;;;4.28;1.40;;;;;;;6.72;88.12;97395.84;3773245;77;42946;-19
2021/05/05 18:33:06;;;;;;;2.83;1.42;;;;;;;6.55;90.31;97403.45;3771648;77;44078;-26
2021/05/05 18:38:12;;;;;;;1.95;1.40;;;;;;;6.39;90.46;97430.98;3774211;77;43687;-26
2021/05/05 18:43:28;;;;;;;1.70;1.20;;;;;;;6.27;90.42;97422.41;3772848;77;43996;-27
2021/05/05 20:26:46;;;;;;;2.10;1.30;;;;;;;4.75;97.41;97567.67;3657896;78;43685;-21
2021/05/05 20:43:17;;;;;;;1.93;1.30;;;;;;;4.54;99.19;97575.86;3806513;76;44088;-21
2021/05/05 21:38:40;;;;;;;2.43;1.80;;;;;;;4.56;96.65;97615.24;3774365;77;43236;-21
2021/05/05 22:54:04;;;;;;;3.57;2.53;;;;;;;4.23;100.00;97598.73;3797750;77;44725;-21
2021/05/05 23:10:21;;;;;;;3.40;2.70;;;;;;;4.13;100.00;97589.90;3698627;79;43993;-23
2021/05/05 23:26:09;;;;;;;3.70;2.93;;;;;;;3.83;100.00;97589.89;3721894;78;43315;-22
2021/05/05 23:37:02;;;;;;;3.97;2.83;;;;;;;3.67;100.00;97584.26;3823239;77;45058;-22
